createdAt,value
2018-12-07T00:00:32.370Z,100.00
2018-12-07T00:03:01.282Z,100.00
2018-12-07T00:05:30.199Z,100.00
2018-12-07T00:07:59.119Z,100.00
2018-12-07T00:10:28.038Z,100.00
2018-12-07T00:12:56.959Z,100.00
2018-12-07T00:15:25.876Z,100.00
2018-12-07T00:17:54.811Z,100.00
2018-12-07T00:20:23.724Z,100.00
2018-12-07T00:22:52.644Z,100.00
2018-12-07T00:25:21.566Z,100.00
2018-12-07T00:27:50.490Z,100.00
2018-12-07T00:30:19.513Z,100.00
2018-12-07T00:32:48.433Z,100.00
2018-12-07T00:35:17.338Z,100.00
2018-12-07T00:37:46.291Z,100.00
2018-12-07T00:40:15.193Z,100.00
2018-12-07T00:42:44.134Z,100.00
2018-12-07T00:45:13.051Z,100.00
2018-12-07T00:47:42.025Z,100.00
2018-12-07T00:50:10.943Z,100.00
2018-12-07T00:52:39.887Z,100.00
2018-12-07T00:55:18.710Z,100.00
2018-12-07T00:57:47.642Z,100.00
2018-12-07T01:00:16.566Z,100.00
2018-12-07T01:02:45.480Z,100.00
2018-12-07T01:05:14.385Z,100.00
2018-12-07T01:07:43.306Z,100.00
2018-12-07T01:10:12.246Z,100.00
2018-12-07T01:12:41.159Z,100.00
2018-12-07T01:15:10.082Z,100.00
2018-12-07T01:17:38.989Z,100.00
2018-12-07T01:20:08.046Z,100.00
2018-12-07T01:22:37.033Z,100.00
2018-12-07T01:25:06.229Z,100.00
2018-12-07T01:27:35.150Z,100.00
2018-12-07T01:30:04.098Z,100.00
2018-12-07T01:32:33.014Z,100.00
2018-12-07T01:35:01.934Z,100.00
2018-12-07T01:37:30.868Z,100.00
2018-12-07T01:39:59.814Z,100.00
2018-12-07T01:42:28.812Z,100.00
2018-12-07T01:44:57.736Z,100.00
2018-12-07T01:47:26.640Z,100.00
2018-12-07T01:49:55.561Z,100.00
2018-12-07T01:52:24.486Z,100.00
2018-12-07T01:54:53.393Z,100.00
2018-12-07T01:57:22.316Z,100.00
2018-12-07T01:59:51.245Z,100.00
2018-12-07T02:02:20.149Z,100.00
2018-12-07T02:04:49.101Z,100.00
2018-12-07T02:07:29.419Z,100.00
2018-12-07T02:09:58.921Z,100.00
2018-12-07T02:12:27.869Z,100.00
2018-12-07T02:14:56.783Z,100.00
2018-12-07T02:17:25.698Z,100.00
2018-12-07T02:19:54.606Z,100.00
2018-12-07T02:22:23.533Z,100.00
2018-12-07T02:24:52.445Z,100.00
2018-12-07T02:27:21.357Z,100.00
2018-12-07T02:29:50.268Z,100.00
2018-12-07T02:32:19.218Z,100.00
2018-12-07T02:34:48.131Z,100.00
2018-12-07T02:37:17.042Z,100.00
2018-12-07T02:39:45.986Z,100.00
2018-12-07T02:42:14.886Z,100.00
2018-12-07T02:44:43.789Z,100.00
2018-12-07T02:47:12.688Z,100.00
2018-12-07T02:49:41.598Z,100.00
2018-12-07T02:52:10.512Z,100.00
2018-12-07T02:54:39.417Z,100.00
2018-12-07T02:57:08.320Z,100.00
2018-12-07T02:59:37.282Z,100.00
2018-12-07T03:02:06.653Z,100.00
2018-12-07T03:04:35.590Z,100.00
2018-12-07T03:07:04.498Z,100.00
2018-12-07T03:09:33.427Z,100.00
2018-12-07T03:12:02.344Z,100.00
2018-12-07T03:14:31.269Z,100.00
2018-12-07T03:17:00.177Z,100.00
2018-12-07T03:19:29.089Z,100.00
2018-12-07T03:21:57.998Z,100.00
2018-12-07T03:24:26.903Z,100.00
2018-12-07T03:26:55.805Z,100.00
2018-12-07T03:29:24.732Z,100.00
2018-12-07T03:31:53.648Z,100.00
2018-12-07T03:34:22.579Z,100.00
2018-12-07T03:36:51.492Z,100.00
2018-12-07T03:39:20.677Z,100.00
2018-12-07T03:41:49.593Z,100.00
2018-12-07T03:44:18.509Z,100.00
2018-12-07T03:46:47.424Z,100.00
2018-12-07T03:49:16.332Z,100.00
2018-12-07T03:51:45.259Z,100.00
2018-12-07T03:54:14.190Z,100.00
2018-12-07T03:56:43.107Z,100.00
2018-12-07T03:59:12.018Z,100.00
2018-12-07T04:01:40.962Z,100.00
2018-12-07T04:04:09.882Z,100.00
2018-12-07T04:06:38.808Z,100.00
2018-12-07T04:09:08.680Z,100.00
2018-12-07T04:11:37.598Z,100.00
2018-12-07T04:14:06.521Z,100.00
2018-12-07T04:16:35.427Z,100.00
2018-12-07T04:19:04.353Z,100.00
2018-12-07T04:21:33.278Z,100.00
2018-12-07T04:24:02.193Z,100.00
2018-12-07T04:26:31.112Z,100.00
2018-12-07T04:29:00.020Z,100.00
2018-12-07T04:31:28.932Z,100.00
2018-12-07T04:33:57.853Z,100.00
2018-12-07T04:36:26.747Z,100.00
2018-12-07T04:38:55.671Z,100.00
2018-12-07T04:41:24.603Z,100.00
2018-12-07T04:43:53.525Z,100.00
2018-12-07T04:46:22.558Z,100.00
2018-12-07T04:48:51.474Z,100.00
2018-12-07T04:51:20.398Z,100.00
2018-12-07T04:53:49.327Z,100.00
2018-12-07T04:56:18.231Z,100.00
2018-12-07T04:58:47.175Z,100.00
2018-12-07T05:01:16.094Z,100.00
2018-12-07T05:03:45.023Z,100.00
2018-12-07T05:06:13.935Z,100.00
2018-12-07T05:08:42.841Z,100.00
2018-12-07T05:11:11.754Z,100.00
2018-12-07T05:13:40.674Z,100.00
2018-12-07T05:16:09.569Z,100.00
2018-12-07T05:18:38.499Z,100.00
2018-12-07T05:21:07.417Z,100.00
2018-12-07T05:23:36.333Z,100.00
2018-12-07T05:26:05.242Z,100.00
2018-12-07T05:28:34.161Z,100.00
2018-12-07T05:31:03.069Z,100.00
2018-12-07T05:33:31.996Z,100.00
2018-12-07T05:36:00.902Z,100.00
2018-12-07T05:38:29.822Z,100.00
2018-12-07T05:40:58.745Z,100.00
2018-12-07T05:43:27.715Z,100.00
2018-12-07T05:45:56.628Z,100.00
2018-12-07T05:48:25.549Z,100.00
2018-12-07T05:50:54.437Z,100.00
2018-12-07T05:53:23.433Z,100.00
2018-12-07T05:55:52.329Z,100.00
2018-12-07T05:58:21.221Z,100.00
2018-12-07T06:00:50.156Z,100.00
2018-12-07T06:03:19.082Z,100.00
2018-12-07T06:05:47.996Z,100.00
2018-12-07T06:08:16.903Z,100.00
2018-12-07T06:10:45.822Z,100.00
2018-12-07T06:13:14.748Z,100.00
2018-12-07T06:15:43.681Z,100.00
2018-12-07T06:18:12.603Z,100.00
2018-12-07T06:20:41.572Z,100.00
2018-12-07T06:23:10.482Z,100.00
2018-12-07T06:25:39.430Z,100.00
2018-12-07T06:28:08.361Z,100.00
2018-12-07T06:30:37.304Z,100.00
2018-12-07T06:33:06.203Z,100.00
2018-12-07T06:35:35.141Z,100.00
2018-12-07T06:38:04.053Z,100.00
2018-12-07T06:40:32.983Z,100.00
2018-12-07T06:43:01.895Z,100.00
2018-12-07T06:45:30.829Z,100.00
2018-12-07T06:47:59.743Z,100.00
2018-12-07T06:50:28.689Z,100.00
2018-12-07T06:52:57.593Z,100.00
2018-12-07T06:55:26.532Z,100.00
2018-12-07T06:57:55.455Z,100.00
2018-12-07T07:00:24.383Z,100.00
2018-12-07T07:02:53.313Z,100.00
2018-12-07T07:05:22.248Z,100.00
2018-12-07T07:07:51.189Z,100.00
2018-12-07T07:10:20.138Z,100.00
2018-12-07T07:12:49.060Z,100.00
2018-12-07T07:15:17.989Z,100.00
2018-12-07T07:17:46.917Z,100.00
2018-12-07T07:20:15.840Z,100.00
2018-12-07T07:22:44.777Z,100.00
2018-12-07T07:25:13.700Z,100.00
2018-12-07T07:27:42.605Z,100.00
2018-12-07T07:30:11.721Z,100.00
2018-12-07T07:32:40.641Z,100.00
2018-12-07T07:35:09.608Z,100.00
2018-12-07T07:37:38.525Z,100.00
2018-12-07T07:40:07.454Z,100.00
2018-12-07T07:42:36.376Z,100.00
2018-12-07T07:45:05.674Z,100.00
2018-12-07T07:47:34.576Z,100.00
2018-12-07T07:50:03.538Z,100.00
2018-12-07T07:52:32.443Z,100.00
2018-12-07T07:55:01.352Z,100.00
2018-12-07T07:57:30.253Z,100.00
2018-12-07T07:59:59.178Z,100.00
2018-12-07T08:02:29.202Z,100.00
2018-12-07T08:04:58.318Z,100.00
2018-12-07T08:07:27.213Z,100.00
2018-12-07T08:09:56.139Z,100.00
2018-12-07T08:12:25.037Z,100.00
2018-12-07T08:14:53.948Z,100.00
2018-12-07T08:17:22.862Z,100.00
2018-12-07T08:19:51.818Z,100.00
2018-12-07T08:22:20.727Z,100.00
2018-12-07T08:24:49.625Z,100.00
2018-12-07T08:27:18.523Z,100.00
2018-12-07T08:29:47.441Z,100.00
2018-12-07T08:32:16.346Z,100.00
2018-12-07T08:34:45.271Z,100.00
2018-12-07T08:37:14.166Z,100.00
2018-12-07T08:39:43.083Z,100.00
2018-12-07T08:42:11.995Z,99.98
2018-12-07T08:44:40.900Z,99.60
2018-12-07T08:47:09.805Z,97.96
2018-12-07T08:49:43.827Z,96.70
2018-12-07T08:52:12.737Z,96.59
2018-12-07T08:54:41.674Z,96.28
2018-12-07T08:57:10.574Z,95.54
2018-12-07T08:59:39.474Z,94.27
2018-12-07T09:02:08.404Z,94.78
2018-12-07T09:04:37.310Z,94.90
2018-12-07T09:07:06.210Z,94.20
2018-12-07T09:09:35.119Z,93.34
2018-12-07T09:12:04.029Z,93.33
2018-12-07T09:14:32.941Z,93.26
2018-12-07T09:17:02.078Z,92.95
2018-12-07T09:19:30.984Z,93.43
2018-12-07T09:21:59.904Z,93.83
2018-12-07T09:24:28.850Z,94.32
2018-12-07T09:26:57.769Z,94.57
2018-12-07T09:29:26.670Z,94.80
2018-12-07T09:31:55.657Z,94.33
2018-12-07T09:34:24.550Z,93.00
2018-12-07T09:36:53.533Z,92.39
2018-12-07T09:39:22.450Z,92.20
2018-12-07T09:41:51.396Z,92.93
2018-12-07T09:44:20.316Z,93.89
2018-12-07T09:46:49.232Z,93.90
2018-12-07T09:49:18.169Z,92.99
2018-12-07T09:51:47.170Z,93.04
2018-12-07T09:54:16.083Z,92.02
2018-12-07T09:56:44.984Z,91.28
2018-12-07T09:59:14.071Z,91.18
2018-12-07T10:01:43.011Z,91.25
2018-12-07T10:04:11.922Z,91.36
2018-12-07T10:06:40.949Z,91.86
2018-12-07T10:09:09.921Z,92.06
2018-12-07T10:11:38.868Z,90.23
2018-12-07T10:14:07.773Z,90.69
2018-12-07T10:16:36.710Z,90.50
2018-12-07T10:19:05.605Z,90.38
2018-12-07T10:21:34.522Z,89.85
2018-12-07T10:24:03.444Z,90.21
2018-12-07T10:26:32.362Z,91.79
2018-12-07T10:29:01.269Z,91.68
2018-12-07T10:31:30.174Z,91.26
2018-12-07T10:33:59.079Z,91.22
2018-12-07T10:36:28.083Z,90.83
2018-12-07T10:38:56.977Z,90.12
2018-12-07T10:41:25.890Z,89.66
2018-12-07T10:43:54.851Z,88.86
2018-12-07T10:46:23.827Z,87.33
2018-12-07T10:48:52.853Z,85.60
2018-12-07T10:51:21.787Z,86.48
2018-12-07T10:53:50.698Z,86.70
2018-12-07T10:56:19.627Z,87.10
2018-12-07T10:58:48.527Z,85.99
2018-12-07T11:01:22.685Z,86.57
2018-12-07T11:03:56.599Z,87.15
2018-12-07T11:06:30.544Z,87.59
2018-12-07T11:09:06.397Z,87.83
2018-12-07T11:13:43.956Z,87.96
2018-12-07T11:16:17.945Z,87.92
2018-12-07T11:18:51.817Z,88.22
2018-12-07T11:22:26.204Z,89.30
2018-12-07T11:25:00.171Z,89.99
2018-12-07T11:27:34.049Z,89.50
2018-12-07T11:31:05.788Z,90.03
2018-12-07T11:33:38.763Z,91.03
2018-12-07T11:36:08.251Z,90.52
2018-12-07T11:38:37.474Z,90.58
2018-12-07T11:41:06.378Z,89.03
2018-12-07T11:43:35.292Z,89.13
2018-12-07T11:46:04.193Z,88.83
2018-12-07T11:48:33.108Z,87.21
2018-12-07T11:51:02.034Z,87.75
2018-12-07T11:53:31.032Z,86.65
2018-12-07T11:56:00.600Z,86.86
2018-12-07T11:58:29.515Z,86.94
2018-12-07T12:00:58.400Z,86.89
2018-12-07T12:03:27.330Z,86.75
2018-12-07T12:05:56.231Z,86.97
2018-12-07T12:08:25.150Z,86.84
2018-12-07T12:10:54.445Z,87.60
2018-12-07T12:13:23.366Z,87.74
2018-12-07T12:15:52.274Z,87.39
2018-12-07T12:18:21.180Z,87.20
2018-12-07T12:20:50.098Z,88.43
2018-12-07T12:23:19.001Z,89.75
2018-12-07T12:25:47.889Z,88.78
2018-12-07T12:28:16.797Z,89.27
2018-12-07T12:30:45.705Z,90.25
2018-12-07T12:33:14.625Z,91.16
2018-12-07T12:35:43.550Z,93.15
2018-12-07T12:38:12.478Z,93.24
2018-12-07T12:40:41.392Z,93.25
2018-12-07T12:43:10.360Z,93.73
2018-12-07T12:45:39.290Z,93.55
2018-12-07T12:48:08.194Z,92.20
2018-12-07T12:50:37.314Z,91.58
2018-12-07T12:53:06.684Z,91.09
2018-12-07T12:55:35.660Z,90.92
2018-12-07T12:58:04.584Z,90.85
2018-12-07T13:00:33.539Z,91.84
2018-12-07T13:03:02.475Z,92.42
2018-12-07T13:05:31.500Z,92.85
2018-12-07T13:08:00.430Z,93.93
2018-12-07T13:10:29.346Z,95.14
2018-12-07T13:12:58.265Z,95.54
2018-12-07T13:15:27.230Z,95.54
2018-12-07T13:17:56.154Z,95.65
2018-12-07T13:20:25.097Z,95.83
2018-12-07T13:22:54.006Z,95.88
2018-12-07T13:25:23.002Z,96.02
2018-12-07T13:27:51.926Z,95.87
2018-12-07T13:30:20.857Z,95.66
2018-12-07T13:32:49.823Z,95.70
2018-12-07T13:35:18.828Z,96.39
2018-12-07T13:37:47.791Z,96.75
2018-12-07T13:40:16.737Z,96.55
2018-12-07T13:42:45.802Z,97.52
2018-12-07T13:45:14.863Z,98.27
2018-12-07T13:47:43.958Z,97.74
2018-12-07T13:50:18.006Z,98.03
2018-12-07T13:52:46.986Z,97.55
2018-12-07T13:55:16.237Z,98.26
2018-12-07T13:57:45.187Z,98.77
2018-12-07T14:00:14.294Z,99.86
2018-12-07T14:02:43.373Z,100.00
2018-12-07T14:05:12.394Z,100.00
2018-12-07T14:07:41.431Z,100.00
2018-12-07T14:10:10.559Z,100.00
2018-12-07T14:12:39.522Z,100.00
2018-12-07T14:15:08.617Z,100.00
2018-12-07T14:17:37.709Z,100.00
2018-12-07T14:20:07.388Z,100.00
2018-12-07T14:22:36.438Z,100.00
2018-12-07T14:25:05.688Z,100.00
2018-12-07T14:27:34.684Z,100.00
2018-12-07T14:30:03.879Z,100.00
2018-12-07T14:32:32.915Z,100.00
2018-12-07T14:35:01.913Z,100.00
2018-12-07T14:37:30.982Z,100.00
2018-12-07T14:39:59.958Z,100.00
2018-12-07T14:42:28.932Z,100.00
2018-12-07T14:44:58.100Z,100.00
2018-12-07T14:47:27.073Z,100.00
2018-12-07T14:49:56.085Z,100.00
2018-12-07T14:52:25.163Z,100.00
2018-12-07T14:54:54.205Z,100.00
2018-12-07T14:57:23.242Z,100.00
2018-12-07T14:59:52.199Z,100.00
2018-12-07T15:02:21.290Z,100.00
2018-12-07T15:04:50.305Z,100.00
2018-12-07T15:07:19.193Z,100.00
2018-12-07T15:09:48.322Z,100.00
2018-12-07T15:12:17.368Z,100.00
2018-12-07T15:14:46.438Z,100.00
2018-12-07T15:17:15.476Z,100.00
2018-12-07T15:19:44.652Z,100.00
2018-12-07T15:22:13.655Z,100.00
2018-12-07T15:24:42.700Z,100.00
2018-12-07T15:27:11.795Z,100.00
2018-12-07T15:29:40.774Z,100.00
2018-12-07T15:32:09.787Z,100.00
2018-12-07T15:34:38.746Z,100.00
2018-12-07T15:37:07.893Z,100.00
2018-12-07T15:39:36.876Z,100.00
2018-12-07T15:42:06.039Z,100.00
2018-12-07T15:44:35.124Z,100.00
2018-12-07T15:47:04.214Z,100.00
2018-12-07T15:49:33.246Z,100.00
2018-12-07T15:52:02.373Z,100.00
2018-12-07T15:54:31.416Z,100.00
2018-12-07T15:57:00.526Z,100.00
2018-12-07T15:59:34.502Z,100.00
2018-12-07T16:02:00.564Z,100.00
2018-12-07T16:04:29.748Z,100.00
2018-12-07T16:06:58.694Z,100.00
2018-12-07T16:09:27.725Z,100.00
2018-12-07T16:11:56.863Z,100.00
2018-12-07T16:14:25.984Z,100.00
2018-12-07T16:16:55.244Z,100.00
2018-12-07T16:19:24.498Z,100.00
2018-12-07T16:21:54.453Z,100.00
2018-12-07T16:24:23.526Z,100.00
2018-12-07T16:26:52.540Z,100.00
2018-12-07T16:29:21.765Z,100.00
2018-12-07T16:31:50.790Z,100.00
2018-12-07T16:34:19.806Z,100.00
2018-12-07T16:36:48.875Z,100.00
2018-12-07T16:39:17.951Z,100.00
2018-12-07T16:41:47.231Z,100.00
2018-12-07T16:44:16.314Z,100.00
2018-12-07T16:46:45.448Z,100.00
2018-12-07T16:49:14.636Z,100.00
2018-12-07T16:51:43.831Z,100.00
2018-12-07T16:54:13.041Z,100.00
2018-12-07T16:56:42.263Z,100.00
2018-12-07T16:59:11.295Z,100.00
2018-12-07T17:01:40.323Z,100.00
2018-12-07T17:04:40.280Z,100.00
2018-12-07T17:07:09.439Z,100.00
2018-12-07T17:09:38.529Z,100.00
2018-12-07T17:12:07.533Z,100.00
2018-12-07T17:14:36.484Z,100.00
2018-12-07T17:17:05.633Z,100.00
2018-12-07T17:19:34.619Z,100.00
2018-12-07T17:22:03.673Z,100.00
2018-12-07T17:24:32.840Z,100.00
2018-12-07T17:27:01.869Z,100.00
2018-12-07T17:29:30.924Z,100.00
2018-12-07T17:32:00.139Z,100.00
2018-12-07T17:34:29.292Z,100.00
2018-12-07T17:36:58.511Z,100.00
2018-12-07T17:39:27.754Z,100.00
2018-12-07T17:41:56.828Z,100.00
2018-12-07T17:44:26.094Z,100.00
2018-12-07T17:46:55.482Z,100.00
2018-12-07T17:49:26.778Z,100.00
2018-12-07T17:51:56.719Z,100.00
2018-12-07T17:54:25.675Z,100.00
2018-12-07T17:56:54.820Z,100.00
2018-12-07T17:59:24.901Z,100.00
2018-12-07T18:01:53.903Z,100.00
2018-12-07T18:04:22.833Z,100.00
2018-12-07T18:06:54.869Z,100.00
2018-12-07T18:09:24.211Z,100.00
2018-12-07T18:11:53.450Z,100.00
2018-12-07T18:14:22.626Z,100.00
2018-12-07T18:16:51.717Z,100.00
2018-12-07T18:19:20.833Z,100.00
2018-12-07T18:21:49.831Z,100.00
2018-12-07T18:24:18.914Z,100.00
2018-12-07T18:26:47.974Z,100.00
2018-12-07T18:29:17.251Z,100.00
2018-12-07T18:31:53.085Z,100.00
2018-12-07T18:34:22.114Z,100.00
2018-12-07T18:36:51.215Z,100.00
2018-12-07T18:39:21.111Z,100.00
2018-12-07T18:41:50.311Z,100.00
2018-12-07T18:44:19.384Z,100.00
2018-12-07T18:46:48.642Z,100.00
2018-12-07T18:49:17.922Z,100.00
2018-12-07T18:51:48.497Z,100.00
2018-12-07T18:54:17.739Z,100.00
2018-12-07T18:56:46.869Z,100.00
2018-12-07T18:59:15.904Z,100.00
2018-12-07T19:01:45.088Z,100.00
2018-12-07T19:04:14.136Z,100.00
2018-12-07T19:06:43.249Z,100.00
2018-12-07T19:09:12.431Z,100.00
2018-12-07T19:11:41.472Z,100.00
2018-12-07T19:14:11.494Z,100.00
2018-12-07T19:16:40.579Z,100.00
2018-12-07T19:19:09.632Z,100.00
2018-12-07T19:21:38.746Z,100.00
2018-12-07T19:24:08.774Z,100.00
2018-12-07T19:26:37.757Z,100.00
2018-12-07T19:29:06.749Z,100.00
2018-12-07T19:31:36.030Z,100.00
2018-12-07T19:34:05.005Z,100.00
2018-12-07T19:36:34.024Z,100.00
2018-12-07T19:39:03.106Z,100.00
2018-12-07T19:41:32.146Z,100.00
2018-12-07T19:44:01.301Z,100.00
2018-12-07T19:46:30.473Z,100.00
2018-12-07T19:48:59.623Z,100.00
2018-12-07T19:55:00.430Z,100.00
2018-12-07T19:57:29.584Z,100.00
2018-12-07T19:59:58.654Z,100.00
2018-12-07T20:02:27.629Z,100.00
2018-12-07T20:04:56.783Z,100.00
2018-12-07T20:07:25.837Z,100.00
2018-12-07T20:09:54.852Z,100.00
2018-12-07T20:12:23.928Z,100.00
2018-12-07T20:14:52.971Z,100.00
2018-12-07T20:17:22.025Z,100.00
2018-12-07T20:19:50.961Z,100.00
2018-12-07T20:22:19.896Z,100.00
2018-12-07T20:24:48.996Z,100.00
2018-12-07T20:27:18.356Z,100.00
2018-12-07T20:29:47.628Z,100.00
2018-12-07T20:32:16.872Z,100.00
2018-12-07T20:34:46.319Z,100.00
2018-12-07T20:37:23.250Z,100.00
2018-12-07T20:39:52.318Z,100.00
2018-12-07T20:42:21.834Z,100.00
2018-12-07T20:44:51.130Z,100.00
2018-12-07T20:47:24.668Z,100.00
2018-12-07T20:49:51.063Z,100.00
2018-12-07T20:52:20.137Z,100.00
2018-12-07T20:54:49.375Z,100.00
2018-12-07T20:57:18.447Z,100.00
2018-12-07T20:59:47.561Z,100.00
2018-12-07T21:02:16.556Z,100.00
2018-12-07T21:04:45.930Z,100.00
2018-12-07T21:07:34.196Z,100.00
2018-12-07T21:10:19.670Z,100.00
2018-12-07T21:13:30.219Z,100.00
2018-12-07T21:17:10.885Z,100.00
2018-12-07T21:19:43.918Z,100.00
2018-12-07T21:22:13.298Z,100.00
2018-12-07T21:24:42.416Z,100.00
2018-12-07T21:27:11.768Z,100.00
2018-12-07T21:29:40.859Z,100.00
2018-12-07T21:32:16.538Z,100.00
2018-12-07T21:34:56.253Z,100.00
2018-12-07T21:37:25.546Z,100.00
2018-12-07T21:40:15.689Z,100.00
2018-12-07T21:42:45.062Z,100.00
2018-12-07T21:45:14.501Z,100.00
2018-12-07T21:48:16.590Z,100.00
2018-12-07T21:50:48.549Z,100.00
2018-12-07T21:53:17.819Z,100.00
2018-12-07T21:55:47.239Z,100.00
2018-12-07T21:58:16.774Z,100.00
2018-12-07T22:00:45.988Z,100.00
2018-12-07T22:03:15.198Z,100.00
2018-12-07T22:05:44.963Z,100.00
2018-12-07T22:08:14.379Z,100.00
2018-12-07T22:10:43.607Z,100.00
2018-12-07T22:13:12.950Z,100.00
2018-12-07T22:15:42.303Z,100.00
2018-12-07T22:18:11.485Z,100.00
2018-12-07T22:20:47.084Z,100.00
2018-12-07T22:23:16.348Z,100.00
2018-12-07T22:25:45.619Z,100.00
2018-12-07T22:28:15.162Z,100.00
2018-12-07T22:30:44.638Z,100.00
2018-12-07T22:33:13.826Z,100.00
2018-12-07T22:35:43.105Z,100.00
2018-12-07T22:38:12.451Z,100.00
2018-12-07T22:40:41.639Z,100.00
2018-12-07T22:43:11.164Z,100.00
2018-12-07T22:45:40.456Z,100.00
2018-12-07T22:48:09.650Z,100.00
2018-12-07T22:50:38.826Z,100.00
2018-12-07T22:53:07.986Z,100.00
2018-12-07T22:55:37.122Z,100.00
2018-12-07T22:58:06.236Z,100.00
2018-12-07T23:00:35.367Z,100.00
2018-12-07T23:03:04.493Z,100.00
2018-12-07T23:05:33.621Z,100.00
2018-12-07T23:08:02.743Z,100.00
2018-12-07T23:10:31.851Z,100.00
2018-12-07T23:13:00.962Z,100.00
2018-12-07T23:15:30.059Z,100.00
2018-12-07T23:17:59.185Z,100.00
2018-12-07T23:20:28.300Z,100.00
2018-12-07T23:22:57.393Z,100.00
2018-12-07T23:25:26.504Z,100.00
2018-12-07T23:27:55.622Z,100.00
2018-12-07T23:30:24.750Z,100.00
2018-12-07T23:32:53.860Z,100.00
2018-12-07T23:35:22.977Z,100.00
2018-12-07T23:37:52.142Z,100.00
2018-12-07T23:40:21.236Z,100.00
2018-12-07T23:42:52.447Z,100.00
2018-12-07T23:45:21.580Z,100.00
2018-12-07T23:47:50.695Z,100.00
2018-12-07T23:50:19.820Z,100.00
2018-12-07T23:52:48.950Z,100.00
2018-12-07T23:55:18.058Z,100.00
2018-12-07T23:57:47.247Z,100.00
